Terminal Aerodrome Forecast
Issued by NWS

Current Version | Previous Version | Text Only | Print | Product List | Glossary Off
Versions: 1 2 3 4 5 6 7 8 9 10 11 12 13 14 15 16 17 18 19 20 21 22

905
FTUS41 KPBZ 110207 AAA
TAFMGW
TAF AMD
KMGW 110207Z 1102/1124 26008G14KT P6SM -SN OVC080
     FM110900 27012KT P6SM VCSH OVC025
     FM111800 29012G20KT P6SM OVC040=

USA.gov is the U.S. government's official web portal to all federal, state and local government web resources and services.